createdAt,value
2019-02-07T00:03:26.705Z,98338.19
2019-02-07T00:08:28.129Z,98337.62
2019-02-07T00:13:30.700Z,98334.02
2019-02-07T00:18:32.241Z,98334.45
2019-02-07T00:23:34.265Z,98325.47
2019-02-07T00:28:36.037Z,98320.84
2019-02-07T00:33:37.565Z,98314.77
2019-02-07T00:38:39.601Z,98310.30
2019-02-07T00:43:41.041Z,98309.91
2019-02-07T00:48:42.884Z,98305.53
2019-02-07T00:53:44.328Z,98300.79
2019-02-07T00:58:45.805Z,98296.96
2019-02-07T01:03:47.378Z,98295.31
2019-02-07T01:08:48.920Z,98290.33
2019-02-07T01:13:50.465Z,98279.02
2019-02-07T01:18:51.993Z,98282.83
2019-02-07T01:23:53.474Z,98275.11
2019-02-07T01:28:55.256Z,98271.52
2019-02-07T01:33:57.978Z,98260.52
2019-02-07T01:38:59.399Z,98252.44
2019-02-07T01:44:01.133Z,98247.80
2019-02-07T01:49:03.169Z,98240.09
2019-02-07T01:54:04.904Z,98226.64
2019-02-07T01:59:06.446Z,98218.03
2019-02-07T02:04:08.167Z,98209.18
2019-02-07T02:09:10.307Z,98210.48
2019-02-07T02:14:12.340Z,98206.33
2019-02-07T02:19:14.980Z,98202.83
2019-02-07T02:24:16.409Z,98191.94
2019-02-07T02:29:18.346Z,98190.53
2019-02-07T02:34:19.834Z,98190.67
2019-02-07T02:39:21.363Z,98185.61
2019-02-07T02:44:23.054Z,98174.55
2019-02-07T02:49:25.211Z,98168.52
2019-02-07T02:54:31.266Z,98175.66
2019-02-07T02:59:32.884Z,98175.88
2019-02-07T03:04:48.513Z,98173.59
2019-02-07T03:09:51.845Z,98161.56
2019-02-07T03:15:07.142Z,98160.53
2019-02-07T03:20:14.033Z,98153.44
2019-02-07T03:25:23.413Z,98146.06
2019-02-07T03:30:30.458Z,98144.75
2019-02-07T03:35:33.782Z,98137.14
2019-02-07T03:40:37.241Z,98126.31
2019-02-07T03:45:46.590Z,98121.37
2019-02-07T03:50:56.026Z,98107.25
2019-02-07T03:56:00.413Z,98106.06
2019-02-07T04:01:04.045Z,98099.70
2019-02-07T04:06:10.250Z,98089.45
2019-02-07T04:11:13.578Z,98087.16
2019-02-07T04:16:32.182Z,98083.08
2019-02-07T04:21:47.340Z,98073.81
2019-02-07T04:26:50.719Z,98060.90
2019-02-07T04:32:06.233Z,98062.11
2019-02-07T04:37:08.774Z,98061.27
2019-02-07T04:42:15.010Z,98050.50
2019-02-07T04:47:16.448Z,98047.64
2019-02-07T04:52:25.810Z,98039.16
2019-02-07T04:57:29.293Z,98029.85
2019-02-07T05:02:33.022Z,98034.48
2019-02-07T05:07:42.512Z,98043.95
2019-02-07T05:12:57.948Z,98037.34
2019-02-07T05:18:01.313Z,98036.61
2019-02-07T05:23:20.432Z,98040.34
2019-02-07T05:28:24.744Z,98036.27
2019-02-07T05:33:44.899Z,98029.05
2019-02-07T05:38:54.190Z,98028.42
2019-02-07T05:44:02.203Z,98028.42
2019-02-07T05:49:23.893Z,98015.94
2019-02-07T05:54:44.017Z,98011.09
2019-02-07T05:59:53.385Z,98009.53
2019-02-07T06:04:59.565Z,98010.48
2019-02-07T06:10:21.439Z,98006.42
2019-02-07T06:15:24.860Z,98008.44
2019-02-07T06:20:40.106Z,98007.52
2019-02-07T06:25:56.750Z,98004.50
2019-02-07T06:31:00.755Z,98002.83
2019-02-07T06:36:20.945Z,97999.52
2019-02-07T06:41:28.613Z,97995.95
2019-02-07T06:46:37.859Z,98000.10
2019-02-07T06:51:47.164Z,97990.97
2019-02-07T06:56:54.263Z,97997.33
2019-02-07T07:02:09.690Z,97995.63
2019-02-07T07:07:15.934Z,97990.48
2019-02-07T07:12:36.237Z,97992.21
2019-02-07T07:17:45.176Z,97991.47
2019-02-07T07:22:48.802Z,97991.86
2019-02-07T07:27:57.756Z,97988.66
2019-02-07T07:33:16.555Z,97993.81
2019-02-07T07:38:25.753Z,97995.59
2019-02-07T07:43:40.934Z,97997.31
2019-02-07T07:48:44.961Z,97993.77
2019-02-07T07:53:46.459Z,97990.59
2019-02-07T07:58:59.872Z,97991.97
2019-02-07T08:04:06.277Z,97983.34
2019-02-07T08:09:15.845Z,97982.56
2019-02-07T08:14:19.481Z,97983.73
2019-02-07T08:19:36.193Z,97972.01
2019-02-07T08:24:55.955Z,97970.29
2019-02-07T08:30:17.726Z,97971.20
2019-02-07T08:35:33.525Z,97962.70
2019-02-07T08:40:43.527Z,97959.97
2019-02-07T08:46:03.307Z,97965.64
2019-02-07T08:51:23.253Z,97967.22
2019-02-07T08:56:32.538Z,97972.00
2019-02-07T09:01:42.582Z,97970.61
2019-02-07T09:06:46.865Z,97977.58
2019-02-07T09:11:53.129Z,97972.56
2019-02-07T09:16:57.325Z,97981.21
2019-02-07T09:22:00.748Z,97976.55
2019-02-07T09:27:04.318Z,97963.96
2019-02-07T09:32:24.711Z,97956.03
2019-02-07T09:37:44.997Z,97953.27
2019-02-07T09:42:50.983Z,97959.04
2019-02-07T09:47:58.363Z,97948.73
2019-02-07T09:53:04.433Z,97950.50
2019-02-07T09:58:23.023Z,97944.98
2019-02-07T10:03:39.651Z,97943.94
2019-02-07T10:08:59.779Z,97944.33
2019-02-07T10:14:09.193Z,97933.12
2019-02-07T10:19:13.829Z,97931.77
2019-02-07T10:24:34.150Z,97927.25
2019-02-07T10:29:36.089Z,97922.19
2019-02-07T10:34:39.535Z,97911.20
2019-02-07T10:39:46.051Z,97907.48
2019-02-07T10:44:55.198Z,97887.55
2019-02-07T10:49:59.584Z,97886.11
2019-02-07T10:55:04.103Z,97876.63
2019-02-07T11:00:18.667Z,97866.95
2019-02-07T11:05:30.909Z,97858.77
2019-02-07T11:10:34.288Z,97852.58
2019-02-07T11:15:43.376Z,97843.06
2019-02-07T11:20:46.718Z,97832.77
2019-02-07T11:26:02.663Z,97818.73
2019-02-07T11:31:06.137Z,97817.66
2019-02-07T11:36:11.145Z,97818.66
2019-02-07T11:41:26.717Z,97808.76
2019-02-07T11:46:39.464Z,97799.39
2019-02-07T11:51:41.001Z,97793.99
2019-02-07T11:56:59.814Z,97783.44
2019-02-07T12:02:08.820Z,97773.64
2019-02-07T12:07:07.429Z,97767.00
2019-02-07T12:12:27.115Z,97769.09
2019-02-07T12:17:33.411Z,97764.12
2019-02-07T12:22:44.068Z,97759.80
2019-02-07T12:28:04.924Z,97745.02
2019-02-07T12:33:14.580Z,97734.28
2019-02-07T12:38:17.922Z,97736.53
2019-02-07T12:43:21.301Z,97724.11
2019-02-07T12:48:25.131Z,97726.05
2019-02-07T12:53:46.500Z,97717.67
2019-02-07T12:58:49.932Z,97711.50
2019-02-07T13:04:10.057Z,97709.98
2019-02-07T13:09:17.075Z,97704.22
2019-02-07T13:14:29.591Z,97684.04
2019-02-07T13:19:48.475Z,97691.86
2019-02-07T13:25:04.291Z,97690.52
2019-02-07T13:30:19.435Z,97682.86
2019-02-07T13:35:39.735Z,97666.86
2019-02-07T13:40:59.499Z,97655.51
2019-02-07T13:46:19.159Z,97658.31
2019-02-07T13:51:31.866Z,97655.20
2019-02-07T13:56:35.209Z,97647.95
2019-02-07T14:01:44.687Z,97636.48
2019-02-07T14:06:51.743Z,97626.02
2019-02-07T14:12:01.130Z,97610.75
2019-02-07T14:17:10.831Z,97605.30
2019-02-07T14:22:21.290Z,97607.78
2019-02-07T14:27:22.709Z,97604.25
2019-02-07T14:32:24.263Z,97600.48
2019-02-07T14:37:28.386Z,97589.36
2019-02-07T14:42:48.568Z,97592.06
2019-02-07T14:47:50.078Z,97596.80
2019-02-07T14:52:55.373Z,97591.12
2019-02-07T14:57:59.579Z,97589.14
2019-02-07T15:03:02.528Z,97582.36
2019-02-07T15:08:06.742Z,97592.87
2019-02-07T15:13:08.272Z,97586.41
2019-02-07T15:18:09.954Z,97581.84
2019-02-07T15:23:12.022Z,97580.19
2019-02-07T15:28:14.573Z,97576.52
2019-02-07T15:33:17.037Z,97567.60
2019-02-07T15:38:20.650Z,97562.55
2019-02-07T15:43:26.765Z,97554.74
2019-02-07T15:48:28.290Z,97556.66
2019-02-07T15:53:29.744Z,97557.25
2019-02-07T15:58:36.160Z,97551.81
2019-02-07T16:03:42.150Z,97551.37
2019-02-07T16:08:43.898Z,97555.98
2019-02-07T16:13:45.374Z,97548.90
2019-02-07T16:18:46.971Z,97541.88
2019-02-07T16:23:48.448Z,97547.72
2019-02-07T16:28:49.881Z,97546.95
2019-02-07T16:33:51.427Z,97552.14
2019-02-07T16:38:53.063Z,97548.66
2019-02-07T16:43:54.944Z,97544.95
2019-02-07T16:48:58.027Z,97553.24
2019-02-07T16:54:03.059Z,97553.33
2019-02-07T16:59:04.673Z,97544.20
2019-02-07T17:04:06.630Z,97532.44
2019-02-07T17:09:11.244Z,97535.09
2019-02-07T17:14:12.801Z,97538.22
2019-02-07T17:23:32.671Z,97531.74
2019-02-07T17:28:34.619Z,97525.35
2019-02-07T17:33:36.294Z,97533.20
2019-02-07T17:38:37.871Z,97540.02
2019-02-07T17:43:39.541Z,97526.91
2019-02-07T17:48:41.128Z,97525.09
2019-02-07T17:53:42.874Z,97530.69
2019-02-07T17:58:44.456Z,97513.70
2019-02-07T18:03:46.017Z,97522.91
2019-02-07T18:08:48.097Z,97540.56
2019-02-07T18:13:49.689Z,97538.94
2019-02-07T18:18:51.253Z,97547.21
2019-02-07T18:23:53.191Z,97550.40
2019-02-07T18:28:54.956Z,97551.54
2019-02-07T18:33:56.634Z,97552.13
2019-02-07T18:38:58.522Z,97552.30
2019-02-07T18:44:00.129Z,97540.47
2019-02-07T18:49:02.204Z,97546.66
2019-02-07T18:54:05.775Z,97553.82
2019-02-07T18:59:07.782Z,97556.48
2019-02-07T19:04:09.351Z,97565.12
2019-02-07T19:09:10.943Z,97563.53
2019-02-07T19:14:12.609Z,97573.69
2019-02-07T19:26:18.537Z,97570.91
2019-02-07T19:31:20.880Z,97572.56
2019-02-07T19:36:22.552Z,97579.67
2019-02-07T19:41:24.212Z,97573.83
2019-02-07T19:46:25.880Z,97581.34
2019-02-07T19:51:27.452Z,97588.65
2019-02-07T19:56:29.119Z,97579.09
2019-02-07T20:01:30.861Z,97583.63
2019-02-07T20:06:32.634Z,97590.77
2019-02-07T20:11:34.970Z,97598.58
2019-02-07T20:16:37.191Z,97606.48
2019-02-07T20:21:40.767Z,97602.83
2019-02-07T20:26:42.778Z,97605.66
2019-02-07T20:31:44.860Z,97613.45
2019-02-07T20:36:46.521Z,97623.59
2019-02-07T20:41:49.266Z,97619.76
2019-02-07T20:46:50.936Z,97623.23
2019-02-07T20:51:52.717Z,97628.30
2019-02-07T20:56:56.281Z,97634.07
2019-02-07T21:01:58.559Z,97635.02
2019-02-07T21:07:01.274Z,97645.75
2019-02-07T21:12:03.486Z,97648.34
2019-02-07T21:17:06.254Z,97647.14
2019-02-07T21:22:07.820Z,97642.14
2019-02-07T21:27:09.383Z,97647.32
2019-02-07T21:32:11.118Z,97647.61
2019-02-07T21:37:12.849Z,97656.00
2019-02-07T21:42:14.854Z,97656.48
2019-02-07T21:47:16.950Z,97660.53
2019-02-07T21:52:18.717Z,97659.77
2019-02-07T21:57:22.595Z,97669.14
2019-02-07T22:02:24.263Z,97663.66
2019-02-07T22:07:26.371Z,97676.74
2019-02-07T22:12:28.037Z,97678.72
2019-02-07T22:17:29.610Z,97686.41
2019-02-07T22:22:31.168Z,97690.73
2019-02-07T22:27:32.870Z,97697.12
2019-02-07T22:32:34.532Z,97706.03
2019-02-07T22:37:36.806Z,97712.41
2019-02-07T22:42:38.566Z,97712.22
2019-02-07T22:47:40.625Z,97706.52
2019-02-07T22:52:42.607Z,97713.52
2019-02-07T22:57:44.464Z,97719.83
2019-02-07T23:02:46.237Z,97716.45
2019-02-07T23:07:47.901Z,97718.01
2019-02-07T23:12:49.602Z,97713.56
2019-02-07T23:17:51.667Z,97718.44
2019-02-07T23:22:53.534Z,97724.14
2019-02-07T23:27:55.333Z,97722.98
2019-02-07T23:32:57.094Z,97717.30
2019-02-07T23:37:58.660Z,97721.63
2019-02-07T23:43:00.553Z,97711.61
2019-02-07T23:48:03.452Z,97713.38
2019-02-07T23:53:14.071Z,97716.09
2019-02-07T23:58:08.996Z,97713.08
